Bezoek onze andere website:

Meteotemplate

Home Weather Station

Saratoga


Lokaal brand risico:
CBI


Regionaal brand risico: Meer informatie



METAR rapporten vliegvelden

   
EBBR - Brussels
Gewijzigd: Oct 20 2018 4:50 pm
Helder  
Helder  
   Wind: varieert 3.7 km/h
Wind: varieert 3.7 km/h
Temperatuur: 14°C
Dauwpunt: 6°C
Vochtigheid: 59%
Barometer: 1031 mb
Zicht: meer dan 10 km
Bewolking: Helder
EBBR 201450Z VRB02KT CAVOK 14/06 Q1031 NOSIG
EBAW - Antwerp
Gewijzigd: Oct 20 2018 4:50 pm
Helder  
Helder  
   Wind: NO 7.4 km/h
Wind: NO 7.4 km/h
Temperatuur: 15°C
Dauwpunt: 7°C
Vochtigheid: 59%
Barometer: 1031 mb
Zicht: meer dan 10 km
Bewolking: Helder
EBAW 201450Z 04004KT 020V080 CAVOK 15/07 Q1031 NOSIG
EHBK - Maastricht
Gewijzigd: Oct 20 2018 4:55 pm
Gedeeltelijk bewolkt  
Gedeeltelijk bewolkt  
   Wind: NO 7.4 km/h
Wind: NO 7.4 km/h
Temperatuur: 14°C
Dauwpunt: 6°C
Vochtigheid: 59%
Barometer: 1030 mb
Bewolking: Gedeeltelijk bewolkt
Zicht: meer dan 10 km
Bewolking: Gedeeltelijk bewolkt
EHBK 201455Z AUTO 05004KT 9999 NSC 14/06 Q1030 NOSIG
EDLV - Nijmegen
Gewijzigd: Oct 20 2018 4:50 pm
Helder  
Helder  
   Wind: varieert 5.6 km/h
Wind: varieert 5.6 km/h
Temperatuur: 16°C
Dauwpunt: 7°C
Vochtigheid: 55%
Barometer: 1031 mb
Zicht: meer dan 10 km
Bewolking: Helder
EDLV 201450Z VRB03KT CAVOK 16/07 Q1031
EHRD - Rotterdam
Gewijzigd: Oct 20 2018 4:55 pm
Bewolking  
Bewolking  
   Wind: Westen 9.3 km/h
Wind: Westen 9.3 km/h
Temperatuur: 15°C
Dauwpunt: 10°C
Vochtigheid: 72%
Barometer: 1030 mb
Bewolking: Bewolking
Zicht: meer dan 10 km
Bewolking: Bewolking 762 m
EHRD 201455Z AUTO 28005KT 240V320 9999 OVC025 15/10 Q1030 NOSIG
 

Script ontwikkeld door  Saratoga-weather.org Aangepast voor de template door  Weerstation Leuven

U vindt ons ook hier:

Het Weer Aktueel

UK Metoffice

European Weather Network

WeatherCloud

Weather Underground

Benelux Weer Netwerk

AWEKAS

Citizen Weather Observer Program (CWOP)

Apparatuur in gebruik:

Weerstation
Davis VP2

Weerprogramma
Meteobridge

Weercomputer
TP-Link MR3020

Davis VP2

Meteobridge

TP-Link MR3020